createdAt,value
2018-03-28T00:00:54.700Z,79.45
2018-03-28T00:03:22.199Z,79.87
2018-03-28T00:05:49.686Z,80.11
2018-03-28T00:08:17.210Z,80.55
2018-03-28T00:10:44.698Z,81.70
2018-03-28T00:13:12.185Z,82.46
2018-03-28T00:15:39.707Z,82.78
2018-03-28T00:18:07.194Z,83.38
2018-03-28T00:20:34.683Z,83.40
2018-03-28T00:23:02.198Z,83.60
2018-03-28T00:25:29.695Z,83.56
2018-03-28T00:27:57.293Z,83.62
2018-03-28T00:30:24.795Z,83.88
2018-03-28T00:32:52.282Z,83.86
2018-03-28T00:35:19.798Z,84.28
2018-03-28T00:37:47.358Z,84.33
2018-03-28T00:40:14.846Z,84.62
2018-03-28T00:42:42.342Z,84.65
2018-03-28T00:45:09.881Z,84.63
2018-03-28T00:47:37.375Z,84.59
2018-03-28T00:50:04.922Z,84.69
2018-03-28T00:52:32.446Z,84.51
2018-03-28T00:54:59.944Z,84.72
2018-03-28T00:57:27.432Z,84.20
2018-03-28T00:59:54.948Z,84.39
2018-03-28T01:02:22.443Z,84.66
2018-03-28T01:04:49.933Z,84.85
2018-03-28T01:07:17.455Z,85.24
2018-03-28T01:09:44.948Z,85.20
2018-03-28T01:12:12.439Z,85.53
2018-03-28T01:14:39.959Z,85.23
2018-03-28T01:17:07.502Z,85.12
2018-03-28T01:19:34.998Z,84.72
2018-03-28T01:22:02.524Z,84.57
2018-03-28T01:24:30.025Z,85.16
2018-03-28T01:26:57.523Z,85.32
2018-03-28T01:29:25.046Z,84.40
2018-03-28T01:31:52.535Z,84.52
2018-03-28T01:34:20.018Z,84.81
2018-03-28T01:36:47.591Z,84.61
2018-03-28T01:39:15.093Z,84.57
2018-03-28T01:41:42.581Z,84.20
2018-03-28T01:44:10.090Z,84.00
2018-03-28T01:46:38.778Z,83.95
2018-03-28T01:49:06.275Z,84.03
2018-03-28T01:51:33.823Z,83.69
2018-03-28T01:54:01.334Z,84.10
2018-03-28T01:56:28.826Z,84.09
2018-03-28T01:58:56.348Z,84.24
2018-03-28T02:01:23.894Z,84.13
2018-03-28T02:03:51.390Z,83.88
2018-03-28T02:06:18.909Z,83.65
2018-03-28T02:08:46.399Z,83.66
2018-03-28T02:11:13.898Z,83.92
2018-03-28T02:13:41.473Z,83.44
2018-03-28T02:16:09.436Z,84.12
2018-03-28T02:18:36.942Z,84.64
2018-03-28T02:21:04.466Z,84.36
2018-03-28T02:23:31.963Z,84.60
2018-03-28T02:25:59.465Z,84.60
2018-03-28T02:28:26.982Z,84.84
2018-03-28T02:30:54.467Z,84.51
2018-03-28T02:33:21.968Z,84.35
2018-03-28T02:35:49.491Z,85.12
2018-03-28T02:38:17.045Z,85.20
2018-03-28T02:40:44.539Z,85.41
2018-03-28T02:43:12.049Z,84.80
2018-03-28T02:45:39.539Z,84.40
2018-03-28T02:48:07.079Z,84.41
2018-03-28T02:50:34.640Z,84.25
2018-03-28T02:53:02.128Z,84.54
2018-03-28T02:55:29.643Z,84.39
2018-03-28T02:57:57.196Z,84.99
2018-03-28T03:00:24.691Z,85.14
2018-03-28T03:02:52.192Z,85.40
2018-03-28T03:05:19.728Z,85.32
2018-03-28T03:07:47.219Z,85.35
2018-03-28T03:10:14.734Z,85.83
2018-03-28T03:12:42.264Z,85.94
2018-03-28T03:15:10.735Z,85.75
2018-03-28T03:17:38.219Z,86.03
2018-03-28T03:20:05.744Z,86.02
2018-03-28T03:22:33.247Z,86.08
2018-03-28T03:25:00.742Z,86.21
2018-03-28T03:27:28.254Z,86.32
2018-03-28T03:29:55.775Z,86.20
2018-03-28T03:32:23.273Z,85.99
2018-03-28T03:34:50.787Z,86.22
2018-03-28T03:37:18.283Z,86.64
2018-03-28T03:39:45.775Z,86.82
2018-03-28T03:42:13.299Z,86.62
2018-03-28T03:44:40.785Z,87.07
2018-03-28T03:47:08.272Z,86.18
2018-03-28T03:49:35.961Z,86.29
2018-03-28T03:52:03.607Z,86.20
2018-03-28T03:54:31.098Z,86.35
2018-03-28T03:56:58.622Z,86.41
2018-03-28T03:59:26.132Z,86.92
2018-03-28T04:01:53.618Z,87.04
2018-03-28T04:04:21.142Z,87.22
2018-03-28T04:06:48.644Z,86.91
2018-03-28T04:09:16.155Z,87.18
2018-03-28T04:11:43.699Z,87.62
2018-03-28T04:14:11.183Z,87.76
2018-03-28T04:16:38.666Z,88.00
2018-03-28T04:19:06.182Z,88.22
2018-03-28T04:21:33.670Z,88.31
2018-03-28T04:24:01.158Z,88.19
2018-03-28T04:26:28.682Z,88.31
2018-03-28T04:28:56.175Z,88.34
2018-03-28T04:31:23.667Z,88.41
2018-03-28T04:33:51.195Z,88.60
2018-03-28T04:36:18.686Z,88.56
2018-03-28T04:38:46.175Z,88.63
2018-03-28T04:41:13.709Z,88.78
2018-03-28T04:43:41.226Z,88.62
2018-03-28T04:46:08.723Z,88.55
2018-03-28T04:48:36.243Z,88.74
2018-03-28T04:51:03.726Z,88.95
2018-03-28T04:53:31.222Z,89.05
2018-03-28T04:55:58.815Z,88.94
2018-03-28T04:58:26.311Z,89.12
2018-03-28T05:00:53.806Z,89.24
2018-03-28T05:03:21.331Z,89.30
2018-03-28T05:05:48.848Z,89.28
2018-03-28T05:08:18.795Z,89.32
2018-03-28T05:10:46.438Z,89.36
2018-03-28T05:13:13.930Z,89.23
2018-03-28T05:15:41.479Z,89.33
2018-03-28T05:18:08.974Z,89.36
2018-03-28T05:20:36.487Z,89.60
2018-03-28T05:23:03.987Z,89.68
2018-03-28T05:25:31.544Z,89.85
2018-03-28T05:27:59.033Z,89.93
2018-03-28T05:30:26.513Z,89.94
2018-03-28T05:32:54.034Z,89.91
2018-03-28T05:35:21.526Z,89.85
2018-03-28T05:37:49.022Z,89.90
2018-03-28T05:40:16.551Z,89.75
2018-03-28T05:42:44.045Z,89.63
2018-03-28T05:45:11.543Z,89.62
2018-03-28T05:47:39.062Z,89.02
2018-03-28T05:50:06.556Z,88.95
2018-03-28T05:52:34.051Z,88.65
2018-03-28T05:55:01.573Z,88.70
2018-03-28T05:57:29.069Z,89.16
2018-03-28T05:59:56.590Z,88.88
2018-03-28T06:02:24.121Z,88.43
2018-03-28T06:04:51.621Z,88.45
2018-03-28T06:07:19.102Z,88.32
2018-03-28T06:09:46.613Z,88.37
2018-03-28T06:12:14.108Z,88.34
2018-03-28T06:14:41.618Z,88.19
2018-03-28T06:17:09.149Z,88.35
2018-03-28T06:19:36.647Z,88.50
2018-03-28T06:22:04.188Z,88.74
2018-03-28T06:24:31.712Z,88.91
2018-03-28T06:26:59.202Z,88.91
2018-03-28T06:29:26.699Z,88.93
2018-03-28T06:31:54.218Z,89.06
2018-03-28T06:34:21.742Z,88.98
2018-03-28T06:36:49.261Z,89.08
2018-03-28T06:39:16.790Z,88.71
2018-03-28T06:41:44.327Z,88.07
2018-03-28T06:44:11.832Z,87.07
2018-03-28T06:46:39.356Z,86.76
2018-03-28T06:49:06.854Z,86.86
2018-03-28T06:51:34.342Z,86.23
2018-03-28T06:54:01.854Z,85.78
2018-03-28T06:56:29.353Z,84.59
2018-03-28T06:58:56.897Z,84.29
2018-03-28T07:01:24.440Z,84.12
2018-03-28T07:03:51.941Z,84.36
2018-03-28T07:06:19.432Z,84.48
2018-03-28T07:08:46.960Z,84.84
2018-03-28T07:11:14.460Z,84.85
2018-03-28T07:13:41.951Z,84.82
2018-03-28T07:16:09.570Z,85.21
2018-03-28T07:18:37.058Z,84.78
2018-03-28T07:21:04.537Z,84.81
2018-03-28T07:23:32.073Z,84.42
2018-03-28T07:25:59.571Z,84.66
2018-03-28T07:28:27.063Z,84.52
2018-03-28T07:30:54.578Z,84.63
2018-03-28T07:33:22.068Z,84.90
2018-03-28T07:35:49.560Z,84.20
2018-03-28T07:38:17.080Z,82.28
2018-03-28T07:40:44.566Z,83.38
2018-03-28T07:43:12.063Z,83.05
2018-03-28T07:45:39.589Z,82.75
2018-03-28T07:48:07.116Z,82.92
2018-03-28T07:50:34.604Z,81.78
2018-03-28T07:53:02.126Z,80.76
2018-03-28T07:55:29.661Z,79.39
2018-03-28T07:57:57.181Z,79.15
2018-03-28T08:00:24.702Z,79.16
2018-03-28T08:02:53.038Z,78.79
2018-03-28T08:05:20.523Z,78.20
2018-03-28T08:07:48.036Z,78.05
2018-03-28T08:10:15.536Z,77.70
2018-03-28T08:12:43.031Z,77.50
2018-03-28T08:15:10.548Z,78.32
2018-03-28T08:17:38.035Z,77.58
2018-03-28T08:20:05.509Z,77.17
2018-03-28T08:22:33.038Z,77.01
2018-03-28T08:25:00.558Z,77.36
2018-03-28T08:27:28.048Z,77.11
2018-03-28T08:29:55.566Z,76.96
2018-03-28T08:32:23.051Z,77.29
2018-03-28T08:34:50.543Z,77.01
2018-03-28T08:37:18.050Z,78.55
2018-03-28T08:39:45.553Z,78.85
2018-03-28T08:42:13.051Z,78.63
2018-03-28T08:44:40.563Z,78.65
2018-03-28T08:47:08.071Z,77.66
2018-03-28T08:49:35.561Z,77.14
2018-03-28T08:52:03.095Z,76.38
2018-03-28T08:54:30.591Z,76.02
2018-03-28T08:56:58.088Z,75.62
2018-03-28T08:59:25.608Z,75.66
2018-03-28T09:01:53.146Z,76.03
2018-03-28T09:04:20.600Z,75.26
2018-03-28T09:06:48.128Z,74.61
2018-03-28T09:09:15.620Z,75.03
2018-03-28T09:11:43.116Z,73.69
2018-03-28T09:14:10.644Z,71.32
2018-03-28T09:16:38.209Z,70.79
2018-03-28T09:19:05.734Z,67.69
2018-03-28T09:21:33.256Z,61.52
2018-03-28T09:24:00.755Z,59.53
2018-03-28T09:26:28.243Z,57.79
2018-03-28T09:28:55.760Z,56.08
2018-03-28T09:31:23.246Z,52.56
2018-03-28T09:33:50.725Z,51.02
2018-03-28T09:36:18.238Z,52.24
2018-03-28T09:38:45.718Z,54.57
2018-03-28T09:41:13.222Z,51.67
2018-03-28T09:43:40.754Z,53.84
2018-03-28T09:46:08.234Z,54.99
2018-03-28T09:48:35.726Z,55.07
2018-03-28T09:51:03.238Z,57.95
2018-03-28T09:53:30.731Z,56.76
2018-03-28T09:55:58.218Z,55.77
2018-03-28T09:58:25.735Z,55.57
2018-03-28T10:00:58.951Z,49.07
2018-03-28T10:03:26.459Z,45.04
2018-03-28T10:05:54.030Z,44.09
2018-03-28T10:08:21.589Z,47.08
2018-03-28T10:10:49.223Z,49.94
2018-03-28T10:13:16.799Z,52.22
2018-03-28T10:15:44.369Z,54.93
2018-03-28T10:18:11.946Z,56.60
2018-03-28T10:20:39.493Z,57.67
2018-03-28T10:23:07.153Z,58.07
2018-03-28T10:25:34.743Z,58.42
2018-03-28T10:28:02.231Z,57.54
2018-03-28T10:30:29.784Z,56.90
2018-03-28T10:32:57.350Z,56.26
2018-03-28T10:35:24.887Z,55.43
2018-03-28T10:37:52.383Z,53.42
2018-03-28T10:40:20.051Z,45.91
2018-03-28T10:42:47.594Z,41.72
2018-03-28T10:45:15.133Z,39.00
2018-03-28T10:47:42.679Z,38.79
2018-03-28T10:50:10.167Z,40.71
2018-03-28T10:52:37.651Z,43.17
2018-03-28T10:55:05.162Z,45.02
2018-03-28T10:57:32.642Z,46.50
2018-03-28T11:00:00.127Z,46.64
2018-03-28T11:02:27.630Z,47.73
2018-03-28T11:04:55.112Z,49.42
2018-03-28T11:07:22.596Z,50.77
2018-03-28T11:09:50.115Z,51.30
2018-03-28T11:12:17.606Z,51.64
2018-03-28T11:14:45.097Z,51.97
2018-03-28T11:17:12.619Z,51.96
2018-03-28T11:19:40.114Z,51.92
2018-03-28T11:22:07.622Z,51.47
2018-03-28T11:24:35.138Z,50.72
2018-03-28T11:27:02.627Z,50.21
2018-03-28T11:29:30.111Z,51.17
2018-03-28T11:31:57.626Z,51.75
2018-03-28T11:34:25.124Z,51.04
2018-03-28T11:36:52.651Z,49.25
2018-03-28T11:39:20.162Z,47.92
2018-03-28T11:41:47.649Z,46.96
2018-03-28T11:44:15.144Z,46.88
2018-03-28T11:46:42.722Z,45.76
2018-03-28T11:49:10.208Z,44.88
2018-03-28T11:51:37.703Z,45.26
2018-03-28T11:54:05.210Z,44.18
2018-03-28T11:56:32.691Z,43.81
2018-03-28T11:59:00.201Z,43.85
2018-03-28T12:01:27.715Z,45.58
2018-03-28T12:03:55.225Z,45.62
2018-03-28T12:06:22.719Z,46.36
2018-03-28T12:08:50.226Z,46.69
2018-03-28T12:11:17.706Z,46.39
2018-03-28T12:13:45.211Z,46.03
2018-03-28T12:16:12.731Z,45.83
2018-03-28T12:18:40.243Z,45.74
2018-03-28T12:21:07.744Z,46.61
2018-03-28T12:23:35.254Z,46.31
2018-03-28T12:26:02.742Z,45.42
2018-03-28T12:28:30.231Z,44.71
2018-03-28T12:30:57.779Z,45.95
2018-03-28T12:33:25.270Z,46.14
2018-03-28T12:35:52.766Z,46.46
2018-03-28T12:38:20.322Z,46.26
2018-03-28T12:40:47.797Z,45.19
2018-03-28T12:43:15.304Z,44.87
2018-03-28T12:45:42.831Z,44.81
2018-03-28T12:48:10.370Z,45.25
2018-03-28T12:50:37.874Z,44.29
2018-03-28T12:53:05.389Z,44.85
2018-03-28T12:55:32.882Z,46.32
2018-03-28T12:58:00.398Z,46.28
2018-03-28T13:00:27.916Z,45.92
2018-03-28T13:02:55.402Z,45.83
2018-03-28T13:05:22.941Z,44.97
2018-03-28T13:07:50.414Z,46.04
2018-03-28T13:10:17.907Z,46.83
2018-03-28T13:12:45.382Z,47.24
2018-03-28T13:15:12.890Z,47.46
2018-03-28T13:17:40.379Z,48.47
2018-03-28T13:20:07.883Z,48.81
2018-03-28T13:22:35.394Z,48.92
2018-03-28T13:25:02.867Z,48.65
2018-03-28T13:27:30.360Z,49.18
2018-03-28T13:29:57.873Z,49.80
2018-03-28T13:32:25.359Z,49.87
2018-03-28T13:34:52.846Z,50.41
2018-03-28T13:37:20.358Z,50.77
2018-03-28T13:39:47.846Z,51.67
2018-03-28T13:42:15.330Z,51.81
2018-03-28T13:44:42.843Z,51.45
2018-03-28T13:47:10.318Z,51.41
2018-03-28T13:49:37.799Z,51.83
2018-03-28T13:52:05.309Z,52.48
2018-03-28T13:54:32.785Z,52.49
2018-03-28T13:57:00.320Z,52.41
2018-03-28T13:59:27.834Z,52.28
2018-03-28T14:01:55.318Z,52.24
2018-03-28T14:04:23.785Z,51.95
2018-03-28T14:06:51.295Z,51.64
2018-03-28T14:09:18.806Z,50.70
2018-03-28T14:11:46.322Z,50.37
2018-03-28T14:14:15.824Z,49.97
2018-03-28T14:16:43.338Z,49.58
2018-03-28T14:19:10.821Z,49.67
2018-03-28T14:21:38.345Z,49.71
2018-03-28T14:24:05.835Z,50.27
2018-03-28T14:26:33.331Z,50.13
2018-03-28T14:29:00.850Z,50.05
2018-03-28T14:31:28.337Z,50.07
2018-03-28T14:33:55.958Z,49.31
2018-03-28T14:36:23.467Z,50.34
2018-03-28T14:38:50.950Z,50.06
2018-03-28T14:41:18.443Z,50.63
2018-03-28T14:43:45.966Z,51.40
2018-03-28T14:46:13.467Z,52.27
2018-03-28T14:48:40.964Z,51.27
2018-03-28T14:51:08.474Z,52.06
2018-03-28T14:53:35.966Z,51.81
2018-03-28T14:56:03.460Z,52.66
2018-03-28T14:58:31.013Z,52.50
2018-03-28T15:00:58.494Z,52.93
2018-03-28T15:03:25.983Z,52.42
2018-03-28T15:05:53.513Z,53.19
2018-03-28T15:08:20.998Z,53.90
2018-03-28T15:10:48.478Z,54.39
2018-03-28T15:13:16.065Z,55.15
2018-03-28T15:15:43.516Z,56.27
2018-03-28T15:18:11.008Z,56.75
2018-03-28T15:20:38.523Z,58.33
2018-03-28T15:23:06.091Z,58.64
2018-03-28T15:25:33.609Z,60.02
2018-03-28T15:28:01.131Z,60.37
2018-03-28T15:30:28.605Z,60.57
2018-03-28T15:32:56.095Z,62.42
2018-03-28T15:35:23.647Z,62.35
2018-03-28T15:37:51.131Z,63.49
2018-03-28T15:40:18.610Z,64.74
2018-03-28T15:42:46.130Z,65.88
2018-03-28T15:45:13.620Z,67.50
2018-03-28T15:47:41.110Z,67.57
2018-03-28T15:50:08.622Z,68.70
2018-03-28T15:52:36.120Z,68.26
2018-03-28T15:55:03.604Z,68.48
2018-03-28T15:57:31.111Z,69.30
2018-03-28T15:59:58.612Z,70.19
2018-03-28T16:02:26.102Z,70.79
2018-03-28T16:04:53.657Z,71.26
2018-03-28T16:07:21.148Z,71.90
2018-03-28T16:12:15.431Z,73.25
2018-03-28T16:14:42.930Z,74.84
2018-03-28T16:17:10.434Z,75.43
2018-03-28T16:19:37.965Z,76.35
2018-03-28T16:22:05.437Z,76.42
2018-03-28T16:24:32.960Z,76.69
2018-03-28T16:27:00.457Z,78.08
2018-03-28T16:29:27.942Z,78.64
2018-03-28T16:31:55.422Z,78.26
2018-03-28T16:34:22.926Z,79.34
2018-03-28T16:36:50.434Z,79.75
2018-03-28T16:39:17.926Z,79.80
2018-03-28T16:41:45.457Z,79.15
2018-03-28T16:44:12.947Z,79.87
2018-03-28T16:46:40.463Z,81.11
2018-03-28T16:49:07.967Z,80.54
2018-03-28T16:51:35.445Z,81.26
2018-03-28T16:54:02.935Z,81.62
2018-03-28T16:56:30.511Z,82.37
2018-03-28T16:58:57.994Z,81.86
2018-03-28T17:01:25.478Z,82.90
2018-03-28T17:03:53.044Z,82.32
2018-03-28T17:06:20.544Z,82.94
2018-03-28T17:08:48.034Z,83.33
2018-03-28T17:11:15.546Z,84.51
2018-03-28T17:13:43.047Z,84.03
2018-03-28T17:16:10.546Z,84.89
2018-03-28T17:18:38.110Z,84.91
2018-03-28T17:21:05.713Z,85.33
2018-03-28T17:23:33.332Z,85.03
2018-03-28T17:26:00.868Z,85.59
2018-03-28T17:28:28.364Z,85.35
2018-03-28T17:30:55.968Z,85.42
2018-03-28T17:33:23.626Z,85.29
2018-03-28T17:35:51.163Z,85.63
2018-03-28T17:38:18.656Z,85.30
2018-03-28T17:40:46.175Z,85.67
2018-03-28T17:43:13.665Z,85.91
2018-03-28T17:45:41.172Z,85.87
2018-03-28T17:48:08.714Z,86.02
2018-03-28T17:50:36.195Z,86.19
2018-03-28T17:53:03.742Z,86.70
2018-03-28T17:55:31.306Z,86.35
2018-03-28T17:57:58.803Z,86.13
2018-03-28T18:00:26.301Z,86.48
2018-03-28T18:02:53.820Z,86.59
2018-03-28T18:05:21.313Z,86.76
2018-03-28T18:07:48.800Z,86.78
2018-03-28T18:10:16.321Z,86.76
2018-03-28T18:12:43.807Z,86.57
2018-03-28T18:15:11.320Z,86.94
2018-03-28T18:17:38.840Z,87.19
2018-03-28T18:20:06.337Z,87.66
2018-03-28T18:22:33.829Z,87.80
2018-03-28T18:25:01.339Z,87.63
2018-03-28T18:27:28.851Z,87.79
2018-03-28T18:29:56.332Z,87.85
2018-03-28T18:32:23.842Z,88.37
2018-03-28T18:34:51.379Z,88.18
2018-03-28T18:37:18.871Z,88.62
2018-03-28T18:39:46.384Z,88.63
2018-03-28T18:42:13.894Z,88.43
2018-03-28T18:44:41.401Z,89.00
2018-03-28T18:47:08.926Z,88.65
2018-03-28T18:49:36.485Z,88.94
2018-03-28T18:52:03.975Z,89.11
2018-03-28T18:54:31.490Z,88.86
2018-03-28T18:56:58.983Z,88.86
2018-03-28T18:59:26.479Z,89.00
2018-03-28T19:01:54.025Z,89.25
2018-03-28T19:04:21.520Z,88.89
2018-03-28T19:06:49.035Z,89.12
2018-03-28T19:09:16.592Z,89.04
2018-03-28T19:11:44.079Z,89.04
2018-03-28T19:14:11.575Z,88.74
2018-03-28T19:16:39.114Z,88.12
2018-03-28T19:19:06.619Z,87.75
2018-03-28T19:21:34.117Z,87.60
2018-03-28T19:24:01.643Z,86.95
2018-03-28T19:26:29.139Z,86.80
2018-03-28T19:28:56.631Z,86.75
2018-03-28T19:31:24.143Z,86.23
2018-03-28T19:33:51.724Z,85.54
2018-03-28T19:36:19.168Z,85.60
2018-03-28T19:38:46.673Z,85.50
2018-03-28T19:41:14.198Z,85.63
2018-03-28T19:43:41.683Z,85.25
2018-03-28T19:46:09.202Z,85.42
2018-03-28T19:48:36.691Z,85.40
2018-03-28T19:51:04.193Z,85.55
2018-03-28T19:53:31.706Z,85.42
2018-03-28T19:55:59.185Z,85.24
2018-03-28T19:58:26.665Z,85.59
2018-03-28T20:00:54.171Z,85.44
2018-03-28T20:03:21.656Z,85.59
2018-03-28T20:05:49.142Z,85.83
2018-03-28T20:08:16.652Z,85.62
2018-03-28T20:10:44.144Z,85.48
2018-03-28T20:13:11.662Z,85.44
2018-03-28T20:15:39.187Z,85.47
2018-03-28T20:18:06.665Z,85.47
2018-03-28T20:20:34.143Z,85.82
2018-03-28T20:23:01.658Z,85.72
2018-03-28T20:25:29.146Z,85.36
2018-03-28T20:27:56.630Z,85.26
2018-03-28T20:30:24.159Z,85.04
2018-03-28T20:32:51.658Z,85.11
2018-03-28T20:35:19.169Z,84.99
2018-03-28T20:37:46.696Z,85.38
2018-03-28T20:40:14.197Z,85.82
2018-03-28T20:42:41.695Z,86.12
2018-03-28T20:45:09.231Z,86.08
2018-03-28T20:47:36.724Z,85.80
2018-03-28T20:50:04.211Z,85.85
2018-03-28T20:52:31.731Z,85.96
2018-03-28T20:54:59.229Z,85.68
2018-03-28T20:57:26.720Z,85.50
2018-03-28T20:59:54.244Z,85.47
2018-03-28T21:02:21.730Z,85.64
2018-03-28T21:04:49.228Z,86.12
2018-03-28T21:07:16.734Z,85.90
2018-03-28T21:09:44.222Z,85.71
2018-03-28T21:12:11.711Z,85.67
2018-03-28T21:14:39.229Z,85.74
2018-03-28T21:17:06.715Z,84.46
2018-03-28T21:19:34.227Z,83.06
2018-03-28T21:22:01.750Z,81.30
2018-03-28T21:24:29.236Z,81.61
2018-03-28T21:26:56.751Z,81.57
2018-03-28T21:29:24.258Z,81.38
2018-03-28T21:31:51.771Z,80.42
2018-03-28T21:34:19.256Z,80.19
2018-03-28T21:36:46.875Z,80.40
2018-03-28T21:39:15.403Z,80.52
2018-03-28T21:41:42.942Z,80.81
2018-03-28T21:44:10.487Z,80.92
2018-03-28T21:46:37.975Z,81.46
2018-03-28T21:49:05.459Z,82.10
2018-03-28T21:51:32.983Z,82.33
2018-03-28T21:54:00.471Z,82.86
2018-03-28T21:56:27.953Z,83.39
2018-03-28T21:58:55.468Z,83.43
2018-03-28T22:01:22.966Z,83.53
2018-03-28T22:03:50.472Z,83.47
2018-03-28T22:06:17.984Z,83.57
2018-03-28T22:08:45.470Z,83.76
2018-03-28T22:11:12.959Z,83.58
2018-03-28T22:13:40.528Z,83.96
2018-03-28T22:16:08.011Z,84.35
2018-03-28T22:18:35.559Z,85.07
2018-03-28T22:21:03.128Z,85.39
2018-03-28T22:23:30.660Z,85.82
2018-03-28T22:25:58.151Z,86.27
2018-03-28T22:28:25.666Z,86.47
2018-03-28T22:30:53.142Z,86.77
2018-03-28T22:33:20.727Z,87.22
2018-03-28T22:35:48.234Z,87.29
2018-03-28T22:38:15.717Z,87.37
2018-03-28T22:40:43.267Z,87.24
2018-03-28T22:43:10.775Z,87.00
2018-03-28T22:45:38.301Z,87.02
2018-03-28T22:48:05.806Z,86.56
2018-03-28T22:50:33.324Z,86.03
2018-03-28T22:53:00.806Z,86.04
2018-03-28T22:55:28.296Z,85.97
2018-03-28T22:57:55.851Z,85.82
2018-03-28T23:00:23.343Z,85.78
2018-03-28T23:02:50.827Z,85.65
2018-03-28T23:05:18.373Z,85.12
2018-03-28T23:07:45.869Z,84.92
2018-03-28T23:10:13.379Z,84.76
2018-03-28T23:12:40.890Z,85.06
2018-03-28T23:15:08.366Z,84.59
2018-03-28T23:17:35.856Z,84.77
2018-03-28T23:20:03.374Z,84.58
2018-03-28T23:22:37.542Z,84.98
2018-03-28T23:25:05.058Z,85.17
2018-03-28T23:27:32.553Z,84.72
2018-03-28T23:30:00.063Z,84.82
2018-03-28T23:32:27.577Z,84.59
2018-03-28T23:34:55.094Z,84.85
2018-03-28T23:37:22.576Z,85.15
2018-03-28T23:39:50.103Z,84.93
2018-03-28T23:42:17.625Z,84.77
2018-03-28T23:44:45.083Z,85.01
2018-03-28T23:47:12.639Z,85.08
2018-03-28T23:49:40.122Z,84.84
2018-03-28T23:52:07.615Z,84.56
2018-03-28T23:54:35.125Z,84.71
2018-03-28T23:57:02.610Z,84.69
2018-03-28T23:59:30.090Z,84.85
